Time;durP1;ratioP1;P1;durP2;ratioP2;P2;SDS_P1;SDS_P2;PMS_P1;PMS_P2;Temp;Humidity;BMP_temperature;BMP_pressure;BME280_temperature;BME280_humidity;BME280_pressure;Samples;Min_cycle;Max_cycle;Signal;HPM_P1;HPM_P2
2021/11/17 02:26:02;;;;;;;59.30;21.80;;;;;;;8.43;100.00;101935.41;4920791;29;20041;-82
2021/11/17 02:28:50;;;;;;;64.15;23.00;;;;;;;8.38;100.00;101932.03;4920373;29;20056;-82
2021/11/17 02:31:18;;;;;;;54.08;22.52;;;;;;;8.39;100.00;101937.28;4905259;29;20052;-82
2021/11/17 02:33:53;;;;;;;57.67;23.02;;;;;;;8.35;100.00;101932.97;4920867;29;20545;-82
2021/11/17 02:36:46;;;;;;;58.90;22.77;;;;;;;8.36;100.00;101934.72;4920729;29;20127;-83
2021/11/17 02:39:26;;;;;;;;;;;;;;;8.54;100.00;101930.75;4921118;29;20044;-83
2021/11/17 02:42:11;;;;;;;58.22;21.23;;;;;;;8.43;100.00;101935.41;4917339;29;19938;-83
2021/11/17 02:44:46;;;;;;;61.78;22.17;;;;;;;8.33;100.00;101927.75;4917777;29;20107;-83
2021/11/17 02:47:48;;;;;;;62.15;23.73;;;;;;;8.58;100.00;101921.84;4917895;29;20422;-83
2021/11/17 02:50:19;;;;;;;60.53;22.55;;;;;;;8.76;100.00;101924.88;4917378;29;20483;-82
2021/11/17 02:53:03;;;;;;;59.78;23.50;;;;;;;8.30;100.00;101919.06;4917737;29;20487;-83
2021/11/17 02:55:55;;;;;;;59.28;22.98;;;;;;;8.55;100.00;101919.28;4917475;29;20040;-81
2021/11/17 02:58:28;;;;;;;58.13;23.05;;;;;;;8.43;100.00;101924.84;4917043;29;20036;-83
2021/11/17 03:01:14;;;;;;;63.85;24.45;;;;;;;8.64;100.00;101910.28;4917548;29;20032;-83
2021/11/17 03:03:40;;;;;;;63.13;22.77;;;;;;;8.61;100.00;101915.63;4919429;29;20396;-81
2021/11/17 03:06:28;;;;;;;56.03;23.83;;;;;;;8.60;100.00;101914.75;4919309;29;20036;-83
2021/11/17 03:09:20;;;;;;;66.63;24.00;;;;;;;8.85;100.00;101908.81;4919502;29;20376;-83
2021/11/17 03:12:04;;;;;;;65.45;23.65;;;;;;;8.82;100.00;101911.53;4919367;29;20035;-82
2021/11/17 03:14:35;;;;;;;59.70;22.67;;;;;;;8.57;100.00;101917.50;4919270;29;20043;-82
2021/11/17 03:17:17;;;;;;;63.80;24.02;;;;;;;8.75;100.00;101912.63;4919576;29;20040;-82
2021/11/17 03:20:04;;;;;;;59.88;23.27;;;;;;;9.01;100.00;101913.63;4919101;29;20028;-83
2021/11/17 03:22:35;;;;;;;59.63;22.60;;;;;;;8.90;100.00;101905.16;4919294;29;20080;-83
2021/11/17 03:25:26;;;;;;;60.35;23.48;;;;;;;8.71;100.00;101903.91;4919101;29;20256;-82
2021/11/17 03:28:10;;;;;;;58.67;24.10;;;;;;;9.08;100.00;101896.69;4918721;29;20032;-83
2021/11/17 03:30:42;;;;;;;57.13;23.70;;;;;;;9.10;100.00;101894.00;4918626;29;20502;-82
2021/11/17 03:33:36;;;;;;;60.47;22.80;;;;;;;8.95;100.00;101871.59;4933364;29;20043;-83
2021/11/17 03:36:19;;;;;;;61.83;23.63;;;;;;;8.99;100.00;101867.94;4918951;29;20036;-82
2021/11/17 03:38:52;;;;;;;59.10;23.83;;;;;;;8.85;100.00;101873.63;4918779;29;20079;-81
2021/11/17 03:41:45;;;;;;;65.38;24.00;;;;;;;8.96;100.00;101873.31;4918847;29;20369;-83
2021/11/17 03:44:14;;;;;;;;;;;;;;;8.91;100.00;101878.72;4918742;29;20028;-83
2021/11/17 03:46:52;;;;;;;60.08;24.13;;;;;;;8.79;100.00;101876.44;4918583;29;19951;-82
2021/11/17 03:49:26;;;;;;;57.63;23.23;;;;;;;8.94;100.00;101880.44;4918754;29;20036;-82
2021/11/17 03:52:16;;;;;;;57.88;24.73;;;;;;;8.90;100.00;101878.78;4918468;29;20096;-83
2021/11/17 03:54:50;;;;;;;61.05;23.52;;;;;;;8.82;100.00;101871.97;4918749;29;20039;-82
2021/11/17 03:57:27;;;;;;;62.30;24.20;;;;;;;8.59;100.00;101862.06;4918195;29;20475;-81
2021/11/17 04:00:20;;;;;;;58.28;23.30;;;;;;;8.87;100.00;101863.03;4918098;29;20091;-82
2021/11/17 04:03:10;;;;;;;63.28;22.95;;;;;;;8.92;100.00;101866.41;4918113;29;20032;-83
2021/11/17 04:05:53;;;;;;;59.45;23.60;;;;;;;9.04;100.00;101868.69;4918366;29;20044;-82
2021/11/17 04:08:40;;;;;;;59.63;24.33;;;;;;;8.91;100.00;101865.53;4918008;29;20479;-82
2021/11/17 04:11:30;;;;;;;58.45;22.38;;;;;;;9.01;100.00;101868.78;4917005;29;20032;-82
2021/11/17 04:14:44;;;;;;;62.08;23.35;;;;;;;8.71;100.00;101872.28;4932553;29;20028;-82
2021/11/17 04:17:24;;;;;;;56.50;22.08;;;;;;;8.70;100.00;101867.91;4878095;29;20065;-82
2021/11/17 04:20:05;;;;;;;58.13;23.17;;;;;;;9.02;100.00;101861.75;4878200;29;20471;-82
2021/11/17 04:22:42;;;;;;;55.35;24.15;;;;;;;8.79;100.00;101853.59;4878499;29;20033;-82
2021/11/17 04:25:34;;;;;;;58.63;22.58;;;;;;;8.88;100.00;101847.16;4878445;29;20176;-82
2021/11/17 04:28:20;;;;;;;63.78;23.38;;;;;;;8.67;100.00;101856.59;4915517;23;20057;-79
2021/11/17 04:31:02;;;;;;;58.83;23.02;;;;;;;8.98;100.00;101868.88;4959653;28;20031;-80
2021/11/17 04:33:50;;;;;;;61.83;24.38;;;;;;;8.90;100.00;101868.22;4977953;28;20106;-80
2021/11/17 04:36:28;;;;;;;59.72;24.25;;;;;;;8.86;100.00;101878.03;4959726;28;20066;-79
2021/11/17 04:39:05;;;;;;;61.17;22.95;;;;;;;9.00;100.00;101871.47;4980090;28;20048;-79
2021/11/17 04:41:58;;;;;;;59.90;23.85;;;;;;;8.95;100.00;101874.25;4987602;28;20097;-80
2021/11/17 04:44:23;;;;;;;60.10;23.15;;;;;;;9.02;100.00;101870.50;4997790;28;20026;-82
2021/11/17 04:47:18;;;;;;;61.28;24.35;;;;;;;8.84;100.00;101867.53;4991514;28;20031;-86
2021/11/17 04:49:59;;;;;;;57.85;22.52;;;;;;;8.92;100.00;101871.69;4980671;28;20031;-85
2021/11/17 04:53:02;;;;;;;57.83;23.25;;;;;;;9.04;100.00;101876.59;4978752;28;20085;-85
2021/11/17 04:55:27;;;;;;;54.25;21.58;;;;;;;9.26;100.00;101869.78;4977656;28;20042;-83
2021/11/17 04:58:06;;;;;;;53.42;23.02;;;;;;;9.06;100.00;101869.50;4976433;28;20034;-80
2021/11/17 05:00:55;;;;;;;55.13;22.48;;;;;;;8.81;100.00;101874.66;4975859;28;20504;-80
2021/11/17 05:03:55;;;;;;;59.90;23.48;;;;;;;9.06;100.00;101869.50;4975174;28;20035;-80
2021/11/17 05:06:23;;;;;;;58.28;23.40;;;;;;;9.21;100.00;101873.44;4975264;28;20473;-80
2021/11/17 05:08:54;;;;;;;52.67;21.25;;;;;;;9.25;100.00;101868.94;4975263;28;20045;-82
2021/11/17 05:11:56;;;;;;;58.55;21.77;;;;;;;9.22;100.00;101875.16;4974132;28;20039;-81
2021/11/17 05:14:25;;;;;;;59.33;23.88;;;;;;;9.22;100.00;101869.88;4974846;28;20022;-79
2021/11/17 05:16:58;;;;;;;57.92;23.77;;;;;;;9.23;100.00;101865.47;4975005;28;20558;-81
2021/11/17 05:19:50;;;;;;;59.47;22.67;;;;;;;8.98;100.00;101876.78;4975192;28;20045;-80
2021/11/17 05:22:39;;;;;;;54.95;22.48;;;;;;;8.88;100.00;101875.34;4975702;28;20027;-80
2021/11/17 05:25:14;;;;;;;55.97;22.55;;;;;;;9.14;100.00;101873.69;4973862;28;20090;-80
2021/11/17 05:28:08;;;;;;;56.28;22.85;;;;;;;9.17;100.00;101871.81;4975170;28;20525;-80
2021/11/17 05:31:11;;;;;;;58.97;23.75;;;;;;;9.35;100.00;101874.81;4967514;28;20046;-80
2021/11/17 05:34:05;;;;;;;52.15;21.77;;;;;;;9.30;100.00;101871.44;4975306;28;20031;-81
2021/11/17 05:37:01;;;;;;;59.65;23.92;;;;;;;9.28;100.00;101878.53;4974435;28;20165;-82
2021/11/17 05:39:45;;;;;;;58.00;23.70;;;;;;;9.13;100.00;101874.59;4975452;28;20058;-81
2021/11/17 05:42:34;;;;;;;60.78;22.75;;;;;;;9.41;100.00;101886.94;4975751;28;20121;-80
2021/11/17 05:45:10;;;;;;;61.80;23.45;;;;;;;9.08;100.00;101877.38;4975229;28;20106;-80
2021/11/17 05:47:38;;;;;;;65.50;24.73;;;;;;;9.42;100.00;101870.19;4975713;28;20019;-80
2021/11/17 05:50:13;;;;;;;62.05;24.00;;;;;;;9.26;100.00;101865.41;4976768;28;20023;-79
2021/11/17 05:53:00;;;;;;;61.85;23.85;;;;;;;9.46;100.00;101874.47;4981629;28;20027;-80
2021/11/17 05:55:50;;;;;;;58.42;22.77;;;;;;;9.36;100.00;101881.81;4990265;28;20027;-81
2021/11/17 05:58:41;;;;;;;59.38;23.38;;;;;;;9.22;100.00;101879.59;4978326;28;20031;-81
2021/11/17 06:01:35;;;;;;;59.47;22.60;;;;;;;9.37;100.00;101880.06;4974523;28;20081;-81
2021/11/17 06:04:03;;;;;;;63.95;24.15;;;;;;;9.34;100.00;101883.63;4975259;28;20522;-81
2021/11/17 06:06:35;;;;;;;60.00;22.65;;;;;;;9.21;100.00;101888.41;4975295;28;20043;-83
2021/11/17 06:09:00;;;;;;;67.32;25.88;;;;;;;9.34;100.00;101881.88;4975382;28;20050;-82
2021/11/17 06:11:28;;;;;;;62.38;24.08;;;;;;;9.21;100.00;101883.13;4975381;28;20031;-81
2021/11/17 06:13:54;;;;;;;60.53;23.65;;;;;;;9.24;100.00;101882.19;4974797;28;20035;-85
2021/11/17 06:16:20;;;;;;;58.83;23.17;;;;;;;9.16;100.00;101885.91;4978176;28;20031;-85
2021/11/17 06:18:45;;;;;;;62.25;22.75;;;;;;;9.41;100.00;101881.66;4963390;28;20035;-85
2021/11/17 06:21:11;;;;;;;65.10;25.10;;;;;;;9.38;100.00;101880.00;4964069;28;20026;-87
2021/11/17 06:23:46;;;;;;;58.67;24.00;;;;;;;9.43;100.00;101890.41;4979877;28;20034;-83
2021/11/17 06:26:12;;;;;;;69.60;24.17;;;;;;;9.43;100.00;101885.13;4980981;28;20113;-84
2021/11/17 06:28:37;;;;;;;64.53;23.73;;;;;;;9.50;100.00;101870.81;4979979;28;20055;-84
2021/11/17 06:31:03;;;;;;;66.55;24.70;;;;;;;9.40;100.00;101874.69;4963220;28;20049;-85
2021/11/17 06:33:28;;;;;;;68.70;24.98;;;;;;;9.67;100.00;101885.25;4963578;28;20045;-84
2021/11/17 06:35:54;;;;;;;64.88;23.83;;;;;;;9.42;100.00;101881.63;4980642;28;20049;-81
2021/11/17 06:38:19;;;;;;;57.08;24.48;;;;;;;9.56;100.00;101881.19;4980051;28;20043;-83
2021/11/17 06:40:46;;;;;;;62.20;23.95;;;;;;;9.55;100.00;101875.97;4979841;28;20058;-86
2021/11/17 06:43:13;;;;;;;65.00;26.35;;;;;;;9.62;100.00;101888.03;4978620;28;20057;-84
2021/11/17 06:45:43;;;;;;;64.45;24.83;;;;;;;9.83;100.00;101880.34;4979122;28;20054;-84
2021/11/17 06:48:08;;;;;;;61.42;24.10;;;;;;;9.69;100.00;101886.94;4979467;28;20489;-83
2021/11/17 06:50:34;;;;;;;63.95;24.00;;;;;;;9.52;100.00;101887.50;4979470;28;20122;-80
2021/11/17 06:53:00;;;;;;;63.70;23.52;;;;;;;9.49;100.00;101887.59;4979805;28;20113;-81
2021/11/17 06:55:25;;;;;;;60.47;23.55;;;;;;;9.93;100.00;101892.31;4979132;28;20034;-82
2021/11/17 06:57:52;;;;;;;65.68;23.65;;;;;;;9.77;100.00;101897.25;4978840;28;20105;-80
2021/11/17 07:00:19;;;;;;;64.20;23.42;;;;;;;9.86;100.00;101901.38;4978370;28;20038;-79
2021/11/17 07:02:45;;;;;;;65.38;24.85;;;;;;;9.88;100.00;101903.97;4983807;28;20030;-80
2021/11/17 07:05:12;;;;;;;71.03;25.50;;;;;;;10.03;100.00;101898.16;4991175;28;20033;-84
2021/11/17 07:07:37;;;;;;;63.70;24.35;;;;;;;10.00;100.00;101910.59;4992703;28;20023;-85
2021/11/17 07:10:04;;;;;;;60.22;24.35;;;;;;;9.97;100.00;101903.66;4980429;28;20374;-80
2021/11/17 07:12:29;;;;;;;60.75;23.30;;;;;;;9.94;100.00;101909.03;4980992;28;20031;-81
2021/11/17 07:14:55;;;;;;;66.50;24.15;;;;;;;9.93;100.00;101913.44;4990418;28;20065;-80
2021/11/17 07:17:20;;;;;;;67.88;24.42;;;;;;;10.04;100.00;101909.59;4989703;28;20377;-81
2021/11/17 07:19:46;;;;;;;66.68;24.85;;;;;;;10.09;100.00;101916.44;4978346;28;20031;-83
2021/11/17 07:22:11;;;;;;;65.35;25.75;;;;;;;10.27;100.00;101916.75;4978529;28;20031;-81
2021/11/17 07:24:37;;;;;;;66.68;23.65;;;;;;;10.31;100.00;101921.00;4979080;28;20147;-82
2021/11/17 07:27:03;;;;;;;66.97;24.95;;;;;;;10.29;100.00;101920.19;4978211;28;20034;-83
2021/11/17 07:29:31;;;;;;;64.53;23.98;;;;;;;10.43;100.00;101916.22;4978601;28;20130;-79
2021/11/17 07:31:57;;;;;;;66.40;23.63;;;;;;;10.30;100.00;101918.41;4978644;28;20038;-83
2021/11/17 07:34:22;;;;;;;71.53;23.27;;;;;;;10.24;100.00;101919.50;4977863;28;20023;-83
2021/11/17 07:36:48;;;;;;;68.82;24.27;;;;;;;10.46;100.00;101924.91;4979455;28;20027;-85
2021/11/17 07:39:15;;;;;;;66.35;24.02;;;;;;;10.33;100.00;101934.16;4979181;28;20035;-85
2021/11/17 07:41:41;;;;;;;71.68;24.35;;;;;;;10.33;100.00;101936.81;4977873;28;20073;-84
2021/11/17 07:44:07;;;;;;;62.40;23.52;;;;;;;10.57;100.00;101934.28;4979092;28;20105;-83
2021/11/17 07:46:32;;;;;;;66.85;24.08;;;;;;;10.59;100.00;101933.28;4978696;28;20029;-84
2021/11/17 07:48:58;;;;;;;73.00;25.42;;;;;;;10.16;100.00;101932.97;4981936;28;20041;-83
2021/11/17 07:51:23;;;;;;;66.15;23.40;;;;;;;10.55;100.00;101954.59;4988377;28;20386;-84
2021/11/17 07:53:49;;;;;;;71.20;24.63;;;;;;;10.49;100.00;101946.91;5000574;28;20034;-86
2021/11/17 07:56:14;;;;;;;62.80;25.00;;;;;;;10.67;100.00;101953.34;4985681;28;20054;-85
2021/11/17 07:58:41;;;;;;;62.40;24.15;;;;;;;10.70;100.00;101950.56;4982017;28;20035;-89
2021/11/17 08:01:07;;;;;;;65.15;24.48;;;;;;;10.70;100.00;101956.72;4982159;28;20061;-82
2021/11/17 08:03:35;;;;;;;61.15;23.75;;;;;;;10.77;100.00;101956.50;4978178;28;20030;-82
2021/11/17 08:06:00;;;;;;;63.70;24.02;;;;;;;10.80;100.00;101959.91;4960903;28;20026;-82
2021/11/17 08:08:27;;;;;;;60.58;22.90;;;;;;;10.88;100.00;101970.22;4969600;28;20046;-82
2021/11/17 08:10:53;;;;;;;62.03;22.63;;;;;;;10.95;100.00;101962.91;4959422;28;20027;-81
2021/11/17 08:13:18;;;;;;;62.63;23.67;;;;;;;10.82;100.00;101958.06;4979415;28;20082;-83
2021/11/17 08:15:44;;;;;;;59.63;24.38;;;;;;;10.78;100.00;101971.47;4988702;28;20033;-81
2021/11/17 08:18:09;;;;;;;59.80;21.60;;;;;;;10.83;100.00;101982.72;4978166;28;20033;-82
2021/11/17 08:20:35;;;;;;;58.03;22.45;;;;;;;10.92;100.00;101974.47;4984564;28;20110;-81
2021/11/17 08:23:02;;;;;;;53.85;21.05;;;;;;;10.88;100.00;101990.50;4981914;28;20054;-84
2021/11/17 08:25:30;;;;;;;46.42;19.08;;;;;;;11.03;100.00;101991.75;4959793;28;20073;-83
2021/11/17 08:27:57;;;;;;;36.05;15.27;;;;;;;11.37;100.00;101987.84;4987858;23;20047;-88
2021/11/17 08:30:24;;;;;;;23.42;10.40;;;;;;;11.30;100.00;101992.50;4958435;28;20054;-85
2021/11/17 08:32:53;;;;;;;15.18;6.22;;;;;;;11.47;100.00;101990.97;4957945;28;20023;-85
2021/11/17 08:35:20;;;;;;;13.27;4.97;;;;;;;11.71;100.00;101989.19;4957623;28;20144;-83
2021/11/17 08:37:47;;;;;;;13.68;3.95;;;;;;;11.79;100.00;101983.59;4956711;28;20023;-83
2021/11/17 08:40:17;;;;;;;15.10;3.83;;;;;;;11.89;100.00;101986.69;4955740;29;20054;-83
2021/11/17 08:42:43;;;;;;;13.10;4.07;;;;;;;12.07;100.00;101987.78;4955037;29;20031;-84
2021/11/17 08:45:08;;;;;;;13.07;2.95;;;;;;;11.82;100.00;101982.59;4956086;28;20446;-84
2021/11/17 08:47:34;;;;;;;10.55;3.33;;;;;;;11.99;100.00;101987.19;4956015;28;20039;-84
2021/11/17 08:50:00;;;;;;;6.85;3.03;;;;;;;12.28;100.00;102000.22;4956175;28;20027;-87
2021/11/17 08:52:26;;;;;;;5.60;2.22;;;;;;;12.05;100.00;101994.91;4956845;28;20453;-83
2021/11/17 08:54:51;;;;;;;10.80;3.05;;;;;;;12.22;100.00;102001.34;4958339;28;20083;-84
2021/11/17 08:57:19;;;;;;;10.30;2.60;;;;;;;12.15;100.00;102002.50;4959674;28;20031;-84
2021/11/17 08:59:46;;;;;;;12.93;2.78;;;;;;;12.21;100.00;102007.56;4958372;28;20370;-85
2021/11/17 09:02:12;;;;;;;9.60;2.13;;;;;;;12.44;100.00;102009.25;4957651;29;20047;-83
2021/11/17 09:04:37;;;;;;;11.40;3.10;;;;;;;12.35;100.00;102014.94;4956433;28;20031;-82
2021/11/17 09:07:03;;;;;;;10.82;2.72;;;;;;;12.53;100.00;102021.28;4939580;29;20379;-85
2021/11/17 09:09:29;;;;;;;10.80;3.63;;;;;;;12.66;100.00;102015.44;4956517;28;20027;-83
2021/11/17 09:11:54;;;;;;;9.90;2.38;;;;;;;12.54;100.00;102023.00;4955018;29;20031;-84
2021/11/17 09:14:20;;;;;;;12.10;2.63;;;;;;;12.56;100.00;102026.47;4956371;28;20148;-85
2021/11/17 09:16:46;;;;;;;9.68;2.95;;;;;;;12.66;100.00;102026.06;4955890;29;20043;-83
2021/11/17 09:19:12;;;;;;;9.57;2.63;;;;;;;12.78;100.00;102028.19;4954663;29;20069;-84
2021/11/17 09:21:40;;;;;;;9.75;2.80;;;;;;;12.71;100.00;102024.06;4938710;29;20023;-85
2021/11/17 09:24:06;;;;;;;8.95;2.60;;;;;;;12.69;100.00;102032.09;4954040;29;20034;-84
2021/11/17 09:26:32;;;;;;;10.95;2.55;;;;;;;12.63;100.00;102036.81;4954495;29;20027;-85
2021/11/17 09:28:58;;;;;;;5.60;2.45;;;;;;;12.81;100.00;102032.50;4955157;28;20383;-84
2021/11/17 09:31:24;;;;;;;13.77;2.70;;;;;;;12.71;100.00;102035.53;4955135;28;20483;-84
2021/11/17 09:33:50;;;;;;;10.80;2.70;;;;;;;13.16;100.00;102026.56;4955105;28;20039;-85
2021/11/17 09:36:17;;;;;;;12.35;2.80;;;;;;;12.86;100.00;102019.00;4955540;28;20118;-83
2021/11/17 09:38:43;;;;;;;9.10;2.65;;;;;;;12.96;100.00;102033.59;4954955;28;20106;-83
2021/11/17 09:41:13;;;;;;;9.98;2.78;;;;;;;13.12;100.00;102046.19;4954887;28;20043;-84
2021/11/17 09:43:45;;;;;;;8.90;2.90;;;;;;;13.06;100.00;102044.69;4953751;29;20054;-84
2021/11/17 09:46:12;;;;;;;12.18;2.63;;;;;;;13.39;100.00;102064.50;4955492;28;20165;-81
2021/11/17 09:48:44;;;;;;;12.80;3.15;;;;;;;13.36;100.00;102064.63;4956366;28;20036;-84
2021/11/17 09:51:20;;;;;;;9.32;2.72;;;;;;;12.98;100.00;102057.44;4958270;28;20029;-81
2021/11/17 09:54:14;;;;;;;10.80;2.50;;;;;;;13.35;100.00;102062.91;4959844;28;20070;-81
2021/11/17 09:56:41;;;;;;;8.40;2.53;;;;;;;13.58;100.00;102067.22;4958325;29;20031;-82
2021/11/17 09:59:12;;;;;;;10.60;2.30;;;;;;;13.56;100.00;102069.94;4943069;29;20035;-83
2021/11/17 10:01:44;;;;;;;10.48;2.53;;;;;;;13.67;100.00;102071.22;4958600;29;20054;-85
2021/11/17 10:04:21;;;;;;;10.00;2.20;;;;;;;13.45;97.00;102072.19;4942956;29;20023;-84
2021/11/17 10:10:10;;;;;;;11.57;2.05;;;;;;;13.24;99.21;102087.31;4959750;29;20064;-85
2021/11/17 10:12:54;;;;;;;10.30;2.13;;;;;;;13.11;100.00;102084.31;4961093;29;20086;-84
2021/11/17 10:15:22;;;;;;;16.08;2.60;;;;;;;12.76;100.00;102087.56;4944247;29;20031;-84
2021/11/17 10:17:52;;;;;;;12.32;2.47;;;;;;;12.82;100.00;102092.59;4960553;29;20023;-84
2021/11/17 10:20:27;;;;;;;11.07;2.60;;;;;;;12.74;100.00;102098.25;4966192;28;20517;-85
2021/11/17 10:23:04;;;;;;;11.82;2.30;;;;;;;12.54;100.00;102102.59;4965907;28;20557;-83
2021/11/17 10:25:46;;;;;;;11.38;2.53;;;;;;;12.39;100.00;102101.44;4960324;28;20031;-85
2021/11/17 10:28:12;;;;;;;15.57;2.72;;;;;;;12.30;100.00;102088.56;4959035;28;20039;-84
2021/11/17 10:30:49;;;;;;;9.68;2.00;;;;;;;12.23;100.00;102097.66;4959816;28;20126;-85
2021/11/17 10:33:24;;;;;;;13.38;2.53;;;;;;;12.64;100.00;102091.59;4960253;28;20023;-85
2021/11/17 10:36:02;;;;;;;7.68;2.45;;;;;;;12.56;100.00;102094.56;4961296;29;20030;-85
2021/11/17 10:38:37;;;;;;;11.82;2.05;;;;;;;12.32;100.00;102092.00;4945852;29;20035;-85
2021/11/17 10:41:07;;;;;;;11.38;2.30;;;;;;;12.56;100.00;102100.75;4960367;28;20030;-85
2021/11/17 10:43:34;;;;;;;15.35;2.53;;;;;;;12.55;100.00;102100.81;4958238;29;20500;-84
2021/11/17 10:46:10;;;;;;;14.25;3.88;;;;;;;12.54;100.00;102099.94;4958591;28;20023;-86
2021/11/17 10:48:38;;;;;;;9.05;2.35;;;;;;;12.61;100.00;102100.56;4957515;29;20031;-84
2021/11/17 10:51:14;;;;;;;12.60;2.40;;;;;;;12.76;100.00;102099.03;4958403;28;20027;-85
2021/11/17 10:53:40;;;;;;;11.70;2.22;;;;;;;12.94;100.00;102100.03;4958132;28;20023;-84
2021/11/17 10:56:10;;;;;;;13.25;2.50;;;;;;;13.14;100.00;102100.13;4956667;29;20194;-84
2021/11/17 10:58:51;;;;;;;10.68;2.92;;;;;;;13.51;100.00;102102.97;4956604;29;20035;-84
2021/11/17 11:01:21;;;;;;;9.25;3.00;;;;;;;13.54;100.00;102103.69;4939959;28;20455;-84
2021/11/17 11:03:49;;;;;;;12.82;2.70;;;;;;;13.55;98.95;102102.75;4957770;28;20050;-86
2021/11/17 11:06:27;;;;;;;10.95;2.67;;;;;;;14.08;96.72;102097.66;4941134;29;20498;-84
2021/11/17 11:09:05;;;;;;;11.43;3.03;;;;;;;13.54;99.62;102100.19;4956382;29;20402;-85
2021/11/17 11:11:35;;;;;;;13.40;2.83;;;;;;;13.51;100.00;102093.19;4957344;28;20053;-85
2021/11/17 11:14:08;;;;;;;12.23;2.75;;;;;;;13.53;96.38;102098.44;4957236;29;20478;-85
2021/11/17 11:16:48;;;;;;;10.55;3.05;;;;;;;13.13;96.56;102096.59;4957827;28;20421;-85
2021/11/17 11:19:17;;;;;;;12.40;2.38;;;;;;;13.48;96.21;102095.94;4956587;29;20085;-85
2021/11/17 11:21:45;;;;;;;10.70;2.22;;;;;;;13.82;94.60;102096.25;4957485;28;20030;-86
2021/11/17 11:24:35;;;;;;;11.07;2.50;;;;;;;13.88;94.80;102098.63;4957285;28;20035;-86
2021/11/17 11:27:01;;;;;;;22.05;2.88;;;;;;;13.73;95.62;102099.34;4957446;28;20106;-86
2021/11/17 11:29:29;;;;;;;11.48;2.20;;;;;;;13.71;95.50;102096.75;4956965;28;20101;-84
2021/11/17 11:31:59;;;;;;;14.77;2.97;;;;;;;13.69;91.62;102107.44;4957307;28;20486;-84
2021/11/17 11:34:40;;;;;;;16.73;2.28;;;;;;;13.57;90.59;102103.53;4956964;28;20391;-85
2021/11/17 11:37:10;;;;;;;15.05;2.90;;;;;;;13.71;92.23;102094.09;4957152;28;20027;-84
2021/11/17 11:39:38;;;;;;;15.98;2.75;;;;;;;13.75;94.92;102100.09;4957364;28;20034;-85
2021/11/17 11:42:18;;;;;;;15.23;2.95;;;;;;;13.83;95.05;102109.47;4955909;29;20026;-84
2021/11/17 11:45:01;;;;;;;19.00;2.90;;;;;;;13.66;95.87;102107.59;4956248;29;20035;-84
2021/11/17 11:47:54;;;;;;;16.20;3.03;;;;;;;13.79;94.53;102109.69;4956026;29;20031;-85
2021/11/17 11:50:32;;;;;;;20.08;3.97;;;;;;;13.61;93.68;102111.38;4958243;28;20126;-84
2021/11/17 11:53:28;;;;;;;14.95;2.67;;;;;;;13.38;90.66;102113.25;4959822;28;20024;-85
2021/11/17 11:55:56;;;;;;;13.40;2.38;;;;;;;13.19;90.86;102109.59;4958477;29;20482;-84
2021/11/17 11:58:24;;;;;;;14.50;3.05;;;;;;;13.18;89.97;102134.44;4958970;28;20059;-85
2021/11/17 12:00:59;;;;;;;17.05;2.75;;;;;;;13.30;89.83;102117.09;4958578;28;20059;-85
2021/11/17 12:03:29;;;;;;;11.88;2.63;;;;;;;13.47;88.55;102126.13;4957629;28;20027;-86
2021/11/17 12:06:12;;;;;;;15.18;2.40;;;;;;;12.83;91.89;102127.06;4956871;29;20186;-85
2021/11/17 12:09:06;;;;;;;18.83;2.50;;;;;;;12.94;93.17;102139.03;4941756;29;20114;-85
2021/11/17 12:11:33;;;;;;;14.77;2.70;;;;;;;13.35;91.62;102134.66;4960696;28;20035;-85
2021/11/17 12:14:25;;;;;;;15.38;2.80;;;;;;;12.96;91.38;102146.00;4962117;28;20079;-83
2021/11/17 12:16:51;;;;;;;13.15;2.33;;;;;;;13.24;90.59;102128.00;4960406;28;20047;-85
2021/11/17 12:19:26;;;;;;;14.68;2.35;;;;;;;13.30;88.86;102141.00;4965206;28;20045;-83
2021/11/17 12:22:00;;;;;;;9.27;1.70;;;;;;;12.86;89.03;102134.03;4961413;28;20038;-84
2021/11/17 12:24:32;;;;;;;10.32;1.80;;;;;;;13.16;87.93;102130.97;4963110;28;20031;-85
2021/11/17 12:27:01;;;;;;;10.57;2.33;;;;;;;12.90;83.57;102132.97;4943430;29;20034;-86
2021/11/17 12:29:32;;;;;;;11.27;2.70;;;;;;;12.83;85.25;102144.78;4969755;23;20063;-86
2021/11/17 12:32:19;;;;;;;10.15;2.08;;;;;;;12.98;85.34;102142.41;4949892;29;20070;-86
2021/11/17 12:34:56;;;;;;;8.80;1.70;;;;;;;12.48;85.61;102142.66;4964185;28;20031;-86
2021/11/17 12:37:39;;;;;;;9.27;2.08;;;;;;;12.55;85.94;102146.75;4963106;29;20042;-85
2021/11/17 12:40:14;;;;;;;10.50;1.88;;;;;;;12.52;84.00;102146.06;4969769;29;20063;-83
2021/11/17 12:42:49;;;;;;;10.35;1.48;;;;;;;12.74;83.23;102150.47;4970803;29;20031;-85
2021/11/17 12:45:25;;;;;;;8.30;1.85;;;;;;;12.65;83.51;102159.66;4974784;29;20027;-84
2021/11/17 12:47:55;;;;;;;11.30;2.03;;;;;;;12.70;83.77;102165.66;4973645;29;20034;-85
2021/11/17 12:50:39;;;;;;;12.77;1.88;;;;;;;12.74;82.84;102163.75;4976785;29;20081;-84
2021/11/17 12:53:14;;;;;;;11.40;1.90;;;;;;;12.83;82.89;102169.53;4974372;28;20022;-86
2021/11/17 12:56:05;;;;;;;7.72;1.92;;;;;;;13.10;79.79;102175.56;4972349;29;20061;-85
2021/11/17 12:58:37;;;;;;;11.88;2.15;;;;;;;12.94;78.72;102173.53;4975484;29;20039;-81
2021/11/17 13:01:09;;;;;;;9.23;2.05;;;;;;;12.92;78.96;102176.25;4959035;29;20035;-83
2021/11/17 13:03:54;;;;;;;9.45;2.05;;;;;;;12.83;81.54;102174.00;4977097;29;20015;-84
2021/11/17 13:06:27;;;;;;;8.95;1.33;;;;;;;13.39;79.48;102173.41;4976354;29;20110;-83
2021/11/17 13:09:12;;;;;;;16.90;2.80;;;;;;;12.96;81.38;102177.84;4976760;29;20050;-85
2021/11/17 13:11:48;;;;;;;8.80;2.42;;;;;;;12.90;82.29;102174.56;4964736;29;20023;-85
2021/11/17 13:14:29;;;;;;;6.32;1.70;;;;;;;12.86;83.41;102170.34;4964869;29;20030;-86
2021/11/17 13:17:04;;;;;;;10.40;1.98;;;;;;;12.94;84.09;102176.19;4974929;29;20035;-85
2021/11/17 13:19:33;;;;;;;10.85;2.50;;;;;;;13.06;82.24;102167.72;4973960;29;20043;-85
2021/11/17 13:22:18;;;;;;;10.27;1.70;;;;;;;12.86;82.46;102173.00;4972841;29;20082;-84
2021/11/17 13:24:44;;;;;;;7.45;1.92;;;;;;;12.82;82.42;102166.94;4970915;28;20042;-85
2021/11/17 13:27:36;;;;;;;11.43;1.85;;;;;;;13.05;80.50;102167.78;4974623;29;20039;-84
2021/11/17 13:30:29;;;;;;;11.20;1.90;;;;;;;13.13;79.64;102164.78;4960357;28;20051;-85
2021/11/17 13:32:55;;;;;;;7.97;2.25;;;;;;;13.17;78.77;102166.38;4976215;28;20039;-84
2021/11/17 13:35:29;;;;;;;13.02;2.10;;;;;;;13.21;79.96;102175.94;4970794;29;20071;-85
2021/11/17 13:38:22;;;;;;;10.15;2.00;;;;;;;13.27;79.32;102156.22;4948614;29;20075;-86
2021/11/17 13:40:50;;;;;;;10.15;1.70;;;;;;;13.12;81.50;102165.69;4946942;29;20036;-86
2021/11/17 13:43:19;;;;;;;13.90;2.67;;;;;;;12.75;82.17;102176.09;4926539;29;20073;-86
2021/11/17 13:45:46;;;;;;;13.98;2.05;;;;;;;13.43;80.67;102183.84;4956375;29;20027;-86
2021/11/17 13:48:26;;;;;;;9.85;2.00;;;;;;;12.96;81.81;102190.25;4957541;29;20536;-86
2021/11/17 13:50:52;;;;;;;7.15;1.52;;;;;;;13.13;80.03;102192.19;4955828;29;20042;-85
2021/11/17 13:53:20;;;;;;;14.70;2.10;;;;;;;12.71;82.46;102192.13;4956913;29;20501;-86
2021/11/17 13:56:09;;;;;;;11.48;2.20;;;;;;;13.06;80.91;102190.75;4956244;29;20585;-85
2021/11/17 13:58:35;;;;;;;7.68;1.63;;;;;;;12.76;82.27;102199.91;4924022;29;20039;-84
2021/11/17 14:01:05;;;;;;;10.93;2.30;;;;;;;12.82;83.53;102202.31;4946405;29;20050;-86
2021/11/17 14:03:34;;;;;;;11.73;2.13;;;;;;;12.72;83.05;102206.28;4939891;29;20043;-84
2021/11/17 14:06:03;;;;;;;10.73;2.30;;;;;;;12.88;83.75;102200.34;4955901;29;20463;-86
2021/11/17 14:08:30;;;;;;;11.48;2.00;;;;;;;13.18;81.98;102195.53;4957014;29;20027;-85
2021/11/17 14:10:55;;;;;;;12.27;2.20;;;;;;;12.85;84.84;102195.16;4967287;29;20024;-84
2021/11/17 14:13:24;;;;;;;9.52;1.98;;;;;;;12.44;87.79;102188.81;4976799;28;20050;-83